sensor_id;sensor_type;location;lat;lon;timestamp;P1;durP1;ratioP1;P2;durP2;ratioP2
75437;SDS011;64015;49.392;15.582;2023-02-28T00:01:19;8.88;;;3.88;;
75437;SDS011;64015;49.392;15.582;2023-02-28T00:03:45;9.85;;;4.03;;
75437;SDS011;64015;49.392;15.582;2023-02-28T00:06:11;8.48;;;4.22;;
75437;SDS011;64015;49.392;15.582;2023-02-28T00:08:37;8.38;;;4.13;;
75437;SDS011;64015;49.392;15.582;2023-02-28T00:11:07;11.23;;;4.78;;
75437;SDS011;64015;49.392;15.582;2023-02-28T00:13:36;8.55;;;4.30;;
75437;SDS011;64015;49.392;15.582;2023-02-28T00:16:08;10.05;;;4.18;;
75437;SDS011;64015;49.392;15.582;2023-02-28T00:18:36;11.15;;;3.78;;
75437;SDS011;64015;49.392;15.582;2023-02-28T00:21:02;8.57;;;3.88;;
75437;SDS011;64015;49.392;15.582;2023-02-28T00:23:28;8.63;;;3.47;;
75437;SDS011;64015;49.392;15.582;2023-02-28T00:25:53;11.48;;;4.18;;
75437;SDS011;64015;49.392;15.582;2023-02-28T00:28:20;12.35;;;4.35;;
75437;SDS011;64015;49.392;15.582;2023-02-28T00:30:46;10.55;;;4.32;;
75437;SDS011;64015;49.392;15.582;2023-02-28T00:33:11;8.50;;;3.58;;
75437;SDS011;64015;49.392;15.582;2023-02-28T00:35:42;9.73;;;3.83;;
75437;SDS011;64015;49.392;15.582;2023-02-28T00:38:12;8.30;;;4.05;;
75437;SDS011;64015;49.392;15.582;2023-02-28T00:40:38;10.07;;;4.35;;
75437;SDS011;64015;49.392;15.582;2023-02-28T00:43:04;8.13;;;3.63;;
75437;SDS011;64015;49.392;15.582;2023-02-28T00:45:30;9.18;;;3.97;;
75437;SDS011;64015;49.392;15.582;2023-02-28T00:47:56;7.63;;;3.63;;
75437;SDS011;64015;49.392;15.582;2023-02-28T00:50:21;9.30;;;3.95;;
75437;SDS011;64015;49.392;15.582;2023-02-28T00:52:47;10.85;;;3.92;;
75437;SDS011;64015;49.392;15.582;2023-02-28T00:55:13;10.68;;;4.07;;
75437;SDS011;64015;49.392;15.582;2023-02-28T00:57:39;11.20;;;4.75;;
75437;SDS011;64015;49.392;15.582;2023-02-28T01:00:07;9.45;;;3.53;;
75437;SDS011;64015;49.392;15.582;2023-02-28T01:02:34;9.80;;;4.00;;
75437;SDS011;64015;49.392;15.582;2023-02-28T01:04:59;12.73;;;4.13;;
75437;SDS011;64015;49.392;15.582;2023-02-28T01:07:25;11.25;;;4.40;;
75437;SDS011;64015;49.392;15.582;2023-02-28T01:09:51;8.60;;;4.05;;
75437;SDS011;64015;49.392;15.582;2023-02-28T01:12:16;9.23;;;4.18;;
75437;SDS011;64015;49.392;15.582;2023-02-28T01:14:42;8.88;;;4.22;;
75437;SDS011;64015;49.392;15.582;2023-02-28T01:17:08;9.95;;;4.57;;
75437;SDS011;64015;49.392;15.582;2023-02-28T01:19:34;9.55;;;4.40;;
75437;SDS011;64015;49.392;15.582;2023-02-28T01:22:01;10.77;;;4.30;;
75437;SDS011;64015;49.392;15.582;2023-02-28T01:24:28;9.27;;;4.07;;
75437;SDS011;64015;49.392;15.582;2023-02-28T01:26:54;9.98;;;3.78;;
75437;SDS011;64015;49.392;15.582;2023-02-28T01:29:19;10.40;;;4.38;;
75437;SDS011;64015;49.392;15.582;2023-02-28T01:31:45;10.27;;;4.03;;
75437;SDS011;64015;49.392;15.582;2023-02-28T01:34:11;10.32;;;4.07;;
75437;SDS011;64015;49.392;15.582;2023-02-28T01:36:37;10.88;;;4.40;;
75437;SDS011;64015;49.392;15.582;2023-02-28T01:39:03;14.45;;;4.78;;
75437;SDS011;64015;49.392;15.582;2023-02-28T01:41:30;11.90;;;4.60;;
75437;SDS011;64015;49.392;15.582;2023-02-28T01:46:29;8.70;;;3.85;;
75437;SDS011;64015;49.392;15.582;2023-02-28T01:48:58;9.00;;;4.13;;
75437;SDS011;64015;49.392;15.582;2023-02-28T01:54:18;10.73;;;4.30;;
75437;SDS011;64015;49.392;15.582;2023-02-28T01:56:57;9.23;;;3.85;;
75437;SDS011;64015;49.392;15.582;2023-02-28T01:59:29;7.95;;;4.20;;
75437;SDS011;64015;49.392;15.582;2023-02-28T02:02:00;10.15;;;4.30;;
75437;SDS011;64015;49.392;15.582;2023-02-28T02:04:30;12.68;;;4.88;;
75437;SDS011;64015;49.392;15.582;2023-02-28T02:07:10;10.45;;;4.15;;
75437;SDS011;64015;49.392;15.582;2023-02-28T02:09:37;14.02;;;5.00;;
75437;SDS011;64015;49.392;15.582;2023-02-28T02:12:06;10.63;;;4.15;;
75437;SDS011;64015;49.392;15.582;2023-02-28T02:20:08;12.27;;;4.53;;
75437;SDS011;64015;49.392;15.582;2023-02-28T02:25:39;11.88;;;4.57;;
75437;SDS011;64015;49.392;15.582;2023-02-28T02:36:40;7.15;;;3.70;;
75437;SDS011;64015;49.392;15.582;2023-02-28T02:39:17;9.77;;;4.30;;
75437;SDS011;64015;49.392;15.582;2023-02-28T02:41:53;9.40;;;4.10;;
75437;SDS011;64015;49.392;15.582;2023-02-28T02:44:30;9.93;;;4.03;;
75437;SDS011;64015;49.392;15.582;2023-02-28T02:47:03;8.13;;;4.10;;
75437;SDS011;64015;49.392;15.582;2023-02-28T02:49:36;11.20;;;4.10;;
75437;SDS011;64015;49.392;15.582;2023-02-28T02:52:04;9.57;;;4.32;;
75437;SDS011;64015;49.392;15.582;2023-02-28T02:54:37;10.68;;;4.13;;
75437;SDS011;64015;49.392;15.582;2023-02-28T02:57:07;8.90;;;4.05;;
75437;SDS011;64015;49.392;15.582;2023-02-28T02:59:37;11.48;;;4.63;;
75437;SDS011;64015;49.392;15.582;2023-02-28T03:02:06;12.10;;;4.32;;
75437;SDS011;64015;49.392;15.582;2023-02-28T03:04:37;10.55;;;4.47;;
75437;SDS011;64015;49.392;15.582;2023-02-28T03:07:10;11.60;;;4.50;;
75437;SDS011;64015;49.392;15.582;2023-02-28T03:09:36;11.60;;;4.30;;
75437;SDS011;64015;49.392;15.582;2023-02-28T03:12:02;9.65;;;3.92;;
75437;SDS011;64015;49.392;15.582;2023-02-28T03:14:53;10.07;;;4.53;;
75437;SDS011;64015;49.392;15.582;2023-02-28T03:19:55;11.85;;;4.05;;
75437;SDS011;64015;49.392;15.582;2023-02-28T03:23:02;9.68;;;4.60;;
75437;SDS011;64015;49.392;15.582;2023-02-28T03:28:36;7.18;;;3.53;;
75437;SDS011;64015;49.392;15.582;2023-02-28T03:31:19;9.63;;;4.05;;
75437;SDS011;64015;49.392;15.582;2023-02-28T03:33:55;8.00;;;3.65;;
75437;SDS011;64015;49.392;15.582;2023-02-28T03:36:32;13.05;;;4.00;;
75437;SDS011;64015;49.392;15.582;2023-02-28T03:39:09;11.45;;;4.03;;
75437;SDS011;64015;49.392;15.582;2023-02-28T03:41:49;10.00;;;4.45;;
75437;SDS011;64015;49.392;15.582;2023-02-28T03:44:18;8.00;;;3.95;;
75437;SDS011;64015;49.392;15.582;2023-02-28T03:46:59;8.18;;;3.78;;
75437;SDS011;64015;49.392;15.582;2023-02-28T03:49:31;10.52;;;4.30;;
75437;SDS011;64015;49.392;15.582;2023-02-28T03:52:01;9.35;;;3.97;;
75437;SDS011;64015;49.392;15.582;2023-02-28T03:54:35;8.98;;;4.30;;
75437;SDS011;64015;49.392;15.582;2023-02-28T03:59:59;8.55;;;4.25;;
75437;SDS011;64015;49.392;15.582;2023-02-28T04:02:31;10.43;;;4.13;;
75437;SDS011;64015;49.392;15.582;2023-02-28T04:04:57;11.60;;;4.07;;
75437;SDS011;64015;49.392;15.582;2023-02-28T04:07:24;11.55;;;4.43;;
75437;SDS011;64015;49.392;15.582;2023-02-28T04:09:49;11.95;;;5.22;;
75437;SDS011;64015;49.392;15.582;2023-02-28T04:12:15;11.95;;;4.82;;
75437;SDS011;64015;49.392;15.582;2023-02-28T04:14:40;12.85;;;4.88;;
75437;SDS011;64015;49.392;15.582;2023-02-28T04:17:06;12.00;;;4.88;;
75437;SDS011;64015;49.392;15.582;2023-02-28T04:19:33;11.18;;;4.72;;
75437;SDS011;64015;49.392;15.582;2023-02-28T04:21:59;11.75;;;5.38;;
75437;SDS011;64015;49.392;15.582;2023-02-28T04:24:26;11.52;;;4.88;;
75437;SDS011;64015;49.392;15.582;2023-02-28T04:29:21;9.68;;;4.43;;
75437;SDS011;64015;49.392;15.582;2023-02-28T04:31:49;8.65;;;3.88;;
75437;SDS011;64015;49.392;15.582;2023-02-28T04:34:14;10.27;;;4.65;;
75437;SDS011;64015;49.392;15.582;2023-02-28T04:36:42;11.77;;;4.75;;
75437;SDS011;64015;49.392;15.582;2023-02-28T04:39:08;10.75;;;4.90;;
75437;SDS011;64015;49.392;15.582;2023-02-28T04:41:35;12.02;;;4.88;;
75437;SDS011;64015;49.392;15.582;2023-02-28T04:44:00;12.05;;;4.72;;
75437;SDS011;64015;49.392;15.582;2023-02-28T04:46:26;14.00;;;5.70;;
75437;SDS011;64015;49.392;15.582;2023-02-28T04:48:52;10.93;;;4.80;;
75437;SDS011;64015;49.392;15.582;2023-02-28T04:51:20;12.15;;;4.95;;
75437;SDS011;64015;49.392;15.582;2023-02-28T04:53:46;11.95;;;4.53;;
75437;SDS011;64015;49.392;15.582;2023-02-28T04:56:14;13.75;;;5.10;;
75437;SDS011;64015;49.392;15.582;2023-02-28T05:01:45;6.45;;;2.97;;
75437;SDS011;64015;49.392;15.582;2023-02-28T05:04:02;10.00;;;4.15;;
75437;SDS011;64015;49.392;15.582;2023-02-28T05:06:30;11.48;;;4.70;;
75437;SDS011;64015;49.392;15.582;2023-02-28T05:08:57;11.05;;;4.88;;
75437;SDS011;64015;49.392;15.582;2023-02-28T05:11:27;11.95;;;5.45;;
75437;SDS011;64015;49.392;15.582;2023-02-28T05:13:58;11.43;;;4.25;;
75437;SDS011;64015;49.392;15.582;2023-02-28T05:16:24;9.63;;;4.63;;
75437;SDS011;64015;49.392;15.582;2023-02-28T05:18:50;8.77;;;4.43;;
75437;SDS011;64015;49.392;15.582;2023-02-28T05:21:23;14.20;;;5.53;;
75437;SDS011;64015;49.392;15.582;2023-02-28T05:23:49;11.85;;;5.00;;
75437;SDS011;64015;49.392;15.582;2023-02-28T05:26:15;10.98;;;4.50;;
75437;SDS011;64015;49.392;15.582;2023-02-28T05:28:40;12.93;;;4.93;;
75437;SDS011;64015;49.392;15.582;2023-02-28T05:31:07;19.55;;;6.53;;
75437;SDS011;64015;49.392;15.582;2023-02-28T05:33:36;13.05;;;5.30;;
75437;SDS011;64015;49.392;15.582;2023-02-28T05:36:02;10.35;;;4.68;;
75437;SDS011;64015;49.392;15.582;2023-02-28T05:38:28;10.73;;;5.10;;
75437;SDS011;64015;49.392;15.582;2023-02-28T05:40:54;11.48;;;4.68;;
75437;SDS011;64015;49.392;15.582;2023-02-28T05:43:19;12.95;;;4.68;;
75437;SDS011;64015;49.392;15.582;2023-02-28T05:45:45;12.20;;;4.10;;
75437;SDS011;64015;49.392;15.582;2023-02-28T05:48:10;11.55;;;4.68;;
75437;SDS011;64015;49.392;15.582;2023-02-28T05:50:36;10.68;;;4.47;;
75437;SDS011;64015;49.392;15.582;2023-02-28T05:53:02;9.85;;;4.63;;
75437;SDS011;64015;49.392;15.582;2023-02-28T05:55:29;11.35;;;5.03;;
75437;SDS011;64015;49.392;15.582;2023-02-28T05:57:54;9.00;;;4.65;;
75437;SDS011;64015;49.392;15.582;2023-02-28T06:00:21;11.88;;;4.20;;
75437;SDS011;64015;49.392;15.582;2023-02-28T06:02:46;12.20;;;4.85;;
75437;SDS011;64015;49.392;15.582;2023-02-28T06:05:14;12.77;;;4.93;;
75437;SDS011;64015;49.392;15.582;2023-02-28T06:07:41;14.75;;;5.28;;
75437;SDS011;64015;49.392;15.582;2023-02-28T06:10:07;10.82;;;4.63;;
75437;SDS011;64015;49.392;15.582;2023-02-28T06:12:34;12.70;;;5.63;;
75437;SDS011;64015;49.392;15.582;2023-02-28T06:15:00;13.07;;;5.38;;
75437;SDS011;64015;49.392;15.582;2023-02-28T06:17:26;14.77;;;5.50;;
75437;SDS011;64015;49.392;15.582;2023-02-28T06:19:52;11.43;;;5.85;;
75437;SDS011;64015;49.392;15.582;2023-02-28T06:22:17;12.10;;;5.45;;
75437;SDS011;64015;49.392;15.582;2023-02-28T06:24:43;11.88;;;5.18;;
75437;SDS011;64015;49.392;15.582;2023-02-28T06:27:09;11.52;;;4.88;;
75437;SDS011;64015;49.392;15.582;2023-02-28T06:29:36;15.95;;;5.70;;
75437;SDS011;64015;49.392;15.582;2023-02-28T06:32:05;11.95;;;4.95;;
75437;SDS011;64015;49.392;15.582;2023-02-28T06:34:31;15.25;;;5.60;;
75437;SDS011;64015;49.392;15.582;2023-02-28T06:37:00;13.95;;;5.72;;
75437;SDS011;64015;49.392;15.582;2023-02-28T06:39:28;9.35;;;5.10;;
75437;SDS011;64015;49.392;15.582;2023-02-28T06:41:54;15.73;;;6.43;;
75437;SDS011;64015;49.392;15.582;2023-02-28T06:44:20;14.23;;;5.32;;
75437;SDS011;64015;49.392;15.582;2023-02-28T06:46:46;14.68;;;6.35;;
75437;SDS011;64015;49.392;15.582;2023-02-28T06:49:12;17.60;;;6.68;;
75437;SDS011;64015;49.392;15.582;2023-02-28T06:51:41;14.30;;;5.55;;
75437;SDS011;64015;49.392;15.582;2023-02-28T06:54:12;17.23;;;6.75;;
75437;SDS011;64015;49.392;15.582;2023-02-28T06:56:38;14.70;;;7.15;;
75437;SDS011;64015;49.392;15.582;2023-02-28T06:59:04;13.85;;;5.32;;
75437;SDS011;64015;49.392;15.582;2023-02-28T07:01:30;13.88;;;5.72;;
75437;SDS011;64015;49.392;15.582;2023-02-28T07:03:57;13.82;;;5.03;;
75437;SDS011;64015;49.392;15.582;2023-02-28T07:06:23;14.02;;;6.00;;
75437;SDS011;64015;49.392;15.582;2023-02-28T07:08:50;18.45;;;5.85;;
75437;SDS011;64015;49.392;15.582;2023-02-28T07:11:20;13.55;;;5.57;;
75437;SDS011;64015;49.392;15.582;2023-02-28T07:13:49;13.85;;;6.03;;
75437;SDS011;64015;49.392;15.582;2023-02-28T07:16:16;16.38;;;6.38;;
75437;SDS011;64015;49.392;15.582;2023-02-28T07:18:44;14.50;;;5.55;;
75437;SDS011;64015;49.392;15.582;2023-02-28T07:21:10;17.90;;;6.65;;
75437;SDS011;64015;49.392;15.582;2023-02-28T07:23:37;12.13;;;5.68;;
75437;SDS011;64015;49.392;15.582;2023-02-28T07:26:03;17.00;;;5.55;;
75437;SDS011;64015;49.392;15.582;2023-02-28T07:28:30;12.30;;;5.95;;
75437;SDS011;64015;49.392;15.582;2023-02-28T07:30:55;13.95;;;6.18;;
75437;SDS011;64015;49.392;15.582;2023-02-28T07:33:21;15.48;;;6.55;;
75437;SDS011;64015;49.392;15.582;2023-02-28T07:35:49;19.60;;;5.70;;
75437;SDS011;64015;49.392;15.582;2023-02-28T07:38:15;13.00;;;6.57;;
75437;SDS011;64015;49.392;15.582;2023-02-28T07:40:40;16.85;;;5.90;;
75437;SDS011;64015;49.392;15.582;2023-02-28T07:43:06;14.93;;;6.10;;
75437;SDS011;64015;49.392;15.582;2023-02-28T07:45:32;18.50;;;6.43;;
75437;SDS011;64015;49.392;15.582;2023-02-28T07:47:59;16.52;;;7.15;;
75437;SDS011;64015;49.392;15.582;2023-02-28T07:50:26;11.80;;;5.75;;
75437;SDS011;64015;49.392;15.582;2023-02-28T07:52:57;15.50;;;6.38;;
75437;SDS011;64015;49.392;15.582;2023-02-28T07:55:23;19.63;;;6.35;;
75437;SDS011;64015;49.392;15.582;2023-02-28T07:57:52;15.88;;;6.30;;
75437;SDS011;64015;49.392;15.582;2023-02-28T08:00:19;16.45;;;6.13;;
75437;SDS011;64015;49.392;15.582;2023-02-28T08:02:45;15.02;;;7.00;;
75437;SDS011;64015;49.392;15.582;2023-02-28T08:05:10;15.63;;;6.97;;
75437;SDS011;64015;49.392;15.582;2023-02-28T08:07:36;14.57;;;6.43;;
75437;SDS011;64015;49.392;15.582;2023-02-28T08:10:02;14.27;;;6.20;;
75437;SDS011;64015;49.392;15.582;2023-02-28T08:12:30;14.40;;;6.88;;
75437;SDS011;64015;49.392;15.582;2023-02-28T08:14:58;14.77;;;6.18;;
75437;SDS011;64015;49.392;15.582;2023-02-28T08:17:26;18.17;;;7.07;;
75437;SDS011;64015;49.392;15.582;2023-02-28T08:19:52;17.00;;;8.38;;
75437;SDS011;64015;49.392;15.582;2023-02-28T08:22:18;18.10;;;6.50;;
75437;SDS011;64015;49.392;15.582;2023-02-28T08:24:43;15.70;;;6.97;;
75437;SDS011;64015;49.392;15.582;2023-02-28T08:27:09;16.50;;;7.30;;
75437;SDS011;64015;49.392;15.582;2023-02-28T08:29:38;13.70;;;6.68;;
75437;SDS011;64015;49.392;15.582;2023-02-28T08:32:05;13.82;;;6.28;;
75437;SDS011;64015;49.392;15.582;2023-02-28T08:34:31;14.98;;;7.72;;
75437;SDS011;64015;49.392;15.582;2023-02-28T08:36:57;15.38;;;6.75;;
75437;SDS011;64015;49.392;15.582;2023-02-28T08:39:22;12.73;;;6.43;;
75437;SDS011;64015;49.392;15.582;2023-02-28T08:41:48;17.10;;;7.40;;
75437;SDS011;64015;49.392;15.582;2023-02-28T08:44:15;14.13;;;6.22;;
75437;SDS011;64015;49.392;15.582;2023-02-28T08:46:41;17.15;;;7.05;;
75437;SDS011;64015;49.392;15.582;2023-02-28T08:49:06;13.70;;;6.90;;
75437;SDS011;64015;49.392;15.582;2023-02-28T08:51:32;16.52;;;7.00;;
75437;SDS011;64015;49.392;15.582;2023-02-28T08:53:59;19.67;;;6.35;;
75437;SDS011;64015;49.392;15.582;2023-02-28T08:56:25;14.85;;;6.20;;
75437;SDS011;64015;49.392;15.582;2023-02-28T08:58:54;17.27;;;6.70;;
75437;SDS011;64015;49.392;15.582;2023-02-28T09:01:22;16.33;;;6.88;;
75437;SDS011;64015;49.392;15.582;2023-02-28T09:03:50;14.35;;;6.28;;
75437;SDS011;64015;49.392;15.582;2023-02-28T09:06:17;12.98;;;6.75;;
75437;SDS011;64015;49.392;15.582;2023-02-28T09:08:44;16.33;;;6.57;;
75437;SDS011;64015;49.392;15.582;2023-02-28T09:11:10;16.40;;;7.22;;
75437;SDS011;64015;49.392;15.582;2023-02-28T09:13:37;14.05;;;6.30;;
75437;SDS011;64015;49.392;15.582;2023-02-28T09:16:03;17.20;;;6.65;;
75437;SDS011;64015;49.392;15.582;2023-02-28T09:18:31;17.90;;;7.70;;
75437;SDS011;64015;49.392;15.582;2023-02-28T09:20:59;22.70;;;8.48;;
75437;SDS011;64015;49.392;15.582;2023-02-28T09:23:28;14.30;;;6.78;;
75437;SDS011;64015;49.392;15.582;2023-02-28T09:25:54;17.20;;;7.10;;
75437;SDS011;64015;49.392;15.582;2023-02-28T09:28:20;13.57;;;6.38;;
75437;SDS011;64015;49.392;15.582;2023-02-28T09:30:48;16.75;;;7.20;;
75437;SDS011;64015;49.392;15.582;2023-02-28T09:33:16;14.45;;;7.13;;
75437;SDS011;64015;49.392;15.582;2023-02-28T09:35:50;14.00;;;6.93;;
75437;SDS011;64015;49.392;15.582;2023-02-28T09:38:16;19.83;;;6.95;;
75437;SDS011;64015;49.392;15.582;2023-02-28T09:40:56;13.85;;;5.47;;
75437;SDS011;64015;49.392;15.582;2023-02-28T09:43:24;14.30;;;7.03;;
75437;SDS011;64015;49.392;15.582;2023-02-28T09:45:59;17.83;;;6.93;;
75437;SDS011;64015;49.392;15.582;2023-02-28T09:48:35;13.80;;;6.43;;
75437;SDS011;64015;49.392;15.582;2023-02-28T09:51:09;13.32;;;6.15;;
75437;SDS011;64015;49.392;15.582;2023-02-28T09:53:48;15.77;;;6.45;;
75437;SDS011;64015;49.392;15.582;2023-02-28T09:59:20;10.80;;;5.78;;
75437;SDS011;64015;49.392;15.582;2023-02-28T10:04:58;13.27;;;6.22;;
75437;SDS011;64015;49.392;15.582;2023-02-28T10:08:11;12.80;;;7.07;;
75437;SDS011;64015;49.392;15.582;2023-02-28T10:10:40;17.52;;;6.68;;
75437;SDS011;64015;49.392;15.582;2023-02-28T10:13:17;14.68;;;7.40;;
75437;SDS011;64015;49.392;15.582;2023-02-28T10:15:50;14.07;;;6.78;;
75437;SDS011;64015;49.392;15.582;2023-02-28T10:18:21;15.40;;;7.72;;
75437;SDS011;64015;49.392;15.582;2023-02-28T10:20:50;19.77;;;7.50;;
75437;SDS011;64015;49.392;15.582;2023-02-28T10:23:23;15.25;;;7.15;;
75437;SDS011;64015;49.392;15.582;2023-02-28T10:25:59;11.95;;;6.53;;
75437;SDS011;64015;49.392;15.582;2023-02-28T10:28:26;15.38;;;6.35;;
75437;SDS011;64015;49.392;15.582;2023-02-28T10:30:54;15.32;;;7.95;;
75437;SDS011;64015;49.392;15.582;2023-02-28T10:35:59;13.27;;;6.75;;
75437;SDS011;64015;49.392;15.582;2023-02-28T10:41:03;14.82;;;6.35;;
75437;SDS011;64015;49.392;15.582;2023-02-28T10:43:32;14.85;;;6.90;;
75437;SDS011;64015;49.392;15.582;2023-02-28T10:46:02;17.77;;;7.88;;
75437;SDS011;64015;49.392;15.582;2023-02-28T10:48:47;13.95;;;6.05;;
75437;SDS011;64015;49.392;15.582;2023-02-28T10:51:25;13.75;;;6.55;;
75437;SDS011;64015;49.392;15.582;2023-02-28T10:53:59;14.55;;;6.82;;
75437;SDS011;64015;49.392;15.582;2023-02-28T10:56:25;16.38;;;7.40;;
75437;SDS011;64015;49.392;15.582;2023-02-28T11:04:19;14.80;;;7.05;;
75437;SDS011;64015;49.392;15.582;2023-02-28T11:06:51;16.95;;;7.40;;
75437;SDS011;64015;49.392;15.582;2023-02-28T11:09:37;13.85;;;7.22;;
75437;SDS011;64015;49.392;15.582;2023-02-28T11:12:08;12.73;;;6.53;;
75437;SDS011;64015;49.392;15.582;2023-02-28T11:14:58;14.60;;;7.18;;
75437;SDS011;64015;49.392;15.582;2023-02-28T11:17:28;14.15;;;7.75;;
75437;SDS011;64015;49.392;15.582;2023-02-28T11:19:57;14.80;;;7.55;;
75437;SDS011;64015;49.392;15.582;2023-02-28T11:22:29;15.45;;;7.03;;
75437;SDS011;64015;49.392;15.582;2023-02-28T11:25:02;15.25;;;8.48;;
75437;SDS011;64015;49.392;15.582;2023-02-28T11:30:38;14.40;;;7.47;;
75437;SDS011;64015;49.392;15.582;2023-02-28T11:35:46;14.32;;;7.47;;
75437;SDS011;64015;49.392;15.582;2023-02-28T11:38:15;15.02;;;7.95;;
75437;SDS011;64015;49.392;15.582;2023-02-28T11:40:46;15.65;;;8.63;;
75437;SDS011;64015;49.392;15.582;2023-02-28T11:46:06;13.50;;;7.43;;
75437;SDS011;64015;49.392;15.582;2023-02-28T11:48:52;15.07;;;8.30;;
75437;SDS011;64015;49.392;15.582;2023-02-28T11:57:21;11.77;;;6.53;;
75437;SDS011;64015;49.392;15.582;2023-02-28T12:03:16;16.30;;;8.38;;
75437;SDS011;64015;49.392;15.582;2023-02-28T12:08:53;16.48;;;8.32;;
75437;SDS011;64015;49.392;15.582;2023-02-28T12:11:44;12.75;;;6.90;;
75437;SDS011;64015;49.392;15.582;2023-02-28T12:22:32;15.07;;;7.18;;
75437;SDS011;64015;49.392;15.582;2023-02-28T12:28:03;14.00;;;7.93;;
75437;SDS011;64015;49.392;15.582;2023-02-28T12:30:32;14.80;;;7.90;;
75437;SDS011;64015;49.392;15.582;2023-02-28T12:38:23;16.10;;;7.97;;
75437;SDS011;64015;49.392;15.582;2023-02-28T12:43:25;11.98;;;7.90;;
75437;SDS011;64015;49.392;15.582;2023-02-28T12:45:58;15.55;;;8.93;;
75437;SDS011;64015;49.392;15.582;2023-02-28T12:48:31;14.10;;;8.15;;
75437;SDS011;64015;49.392;15.582;2023-02-28T12:51:05;14.38;;;8.10;;
75437;SDS011;64015;49.392;15.582;2023-02-28T12:59:16;14.25;;;9.10;;
75437;SDS011;64015;49.392;15.582;2023-02-28T13:10:14;16.67;;;8.93;;
75437;SDS011;64015;49.392;15.582;2023-02-28T13:12:49;16.65;;;8.52;;
75437;SDS011;64015;49.392;15.582;2023-02-28T13:15:21;16.50;;;7.82;;
75437;SDS011;64015;49.392;15.582;2023-02-28T13:17:50;13.88;;;9.13;;
75437;SDS011;64015;49.392;15.582;2023-02-28T13:20:19;14.13;;;8.35;;
75437;SDS011;64015;49.392;15.582;2023-02-28T13:22:48;16.48;;;9.57;;
75437;SDS011;64015;49.392;15.582;2023-02-28T13:27:48;15.48;;;8.50;;
75437;SDS011;64015;49.392;15.582;2023-02-28T13:36:09;13.35;;;8.32;;
75437;SDS011;64015;49.392;15.582;2023-02-28T13:38:42;11.80;;;7.20;;
75437;SDS011;64015;49.392;15.582;2023-02-28T13:54:32;15.27;;;8.65;;
75437;SDS011;64015;49.392;15.582;2023-02-28T13:57:57;14.93;;;8.80;;
75437;SDS011;64015;49.392;15.582;2023-02-28T14:03:16;15.00;;;8.90;;
75437;SDS011;64015;49.392;15.582;2023-02-28T14:06:17;13.82;;;7.88;;
75437;SDS011;64015;49.392;15.582;2023-02-28T14:08:53;14.45;;;9.48;;
75437;SDS011;64015;49.392;15.582;2023-02-28T14:11:33;15.32;;;8.57;;
75437;SDS011;64015;49.392;15.582;2023-02-28T14:14:00;12.52;;;8.38;;
75437;SDS011;64015;49.392;15.582;2023-02-28T14:16:34;12.40;;;8.00;;
75437;SDS011;64015;49.392;15.582;2023-02-28T14:19:13;13.85;;;9.18;;
75437;SDS011;64015;49.392;15.582;2023-02-28T14:21:49;14.75;;;9.18;;
75437;SDS011;64015;49.392;15.582;2023-02-28T14:29:56;15.60;;;9.48;;
75437;SDS011;64015;49.392;15.582;2023-02-28T14:37:43;14.57;;;8.90;;
75437;SDS011;64015;49.392;15.582;2023-02-28T14:40:17;16.67;;;10.65;;
75437;SDS011;64015;49.392;15.582;2023-02-28T14:42:48;12.45;;;8.32;;
75437;SDS011;64015;49.392;15.582;2023-02-28T14:45:21;14.10;;;8.98;;
75437;SDS011;64015;49.392;15.582;2023-02-28T14:47:51;16.33;;;9.38;;
75437;SDS011;64015;49.392;15.582;2023-02-28T14:50:21;17.67;;;10.55;;
75437;SDS011;64015;49.392;15.582;2023-02-28T14:52:52;16.75;;;10.38;;
75437;SDS011;64015;49.392;15.582;2023-02-28T14:55:23;14.65;;;9.27;;
75437;SDS011;64015;49.392;15.582;2023-02-28T15:02:55;15.45;;;9.63;;
75437;SDS011;64015;49.392;15.582;2023-02-28T15:05:32;12.82;;;8.63;;
75437;SDS011;64015;49.392;15.582;2023-02-28T15:08:13;15.35;;;9.18;;
75437;SDS011;64015;49.392;15.582;2023-02-28T15:10:54;15.77;;;8.95;;
75437;SDS011;64015;49.392;15.582;2023-02-28T15:13:45;16.45;;;9.40;;
75437;SDS011;64015;49.392;15.582;2023-02-28T15:16:17;12.90;;;8.60;;
75437;SDS011;64015;49.392;15.582;2023-02-28T15:18:57;16.20;;;9.07;;
75437;SDS011;64015;49.392;15.582;2023-02-28T15:21:35;17.95;;;10.10;;
75437;SDS011;64015;49.392;15.582;2023-02-28T15:24:08;16.48;;;9.40;;
75437;SDS011;64015;49.392;15.582;2023-02-28T15:27:02;16.50;;;8.68;;
75437;SDS011;64015;49.392;15.582;2023-02-28T15:29:45;18.80;;;8.63;;
75437;SDS011;64015;49.392;15.582;2023-02-28T15:33:01;12.15;;;7.70;;
75437;SDS011;64015;49.392;15.582;2023-02-28T15:40:31;14.30;;;8.13;;
75437;SDS011;64015;49.392;15.582;2023-02-28T15:45:45;13.90;;;7.88;;
75437;SDS011;64015;49.392;15.582;2023-02-28T15:48:17;16.80;;;7.55;;
75437;SDS011;64015;49.392;15.582;2023-02-28T15:51:21;11.82;;;7.32;;
75437;SDS011;64015;49.392;15.582;2023-02-28T15:58:58;14.77;;;8.52;;
75437;SDS011;64015;49.392;15.582;2023-02-28T16:01:30;15.65;;;8.55;;
75437;SDS011;64015;49.392;15.582;2023-02-28T16:04:02;15.93;;;7.82;;
75437;SDS011;64015;49.392;15.582;2023-02-28T16:06:37;15.88;;;8.13;;
75437;SDS011;64015;49.392;15.582;2023-02-28T16:09:14;16.67;;;8.40;;
75437;SDS011;64015;49.392;15.582;2023-02-28T16:11:45;15.23;;;7.85;;
75437;SDS011;64015;49.392;15.582;2023-02-28T16:14:15;18.73;;;9.00;;
75437;SDS011;64015;49.392;15.582;2023-02-28T16:16:44;14.13;;;7.40;;
75437;SDS011;64015;49.392;15.582;2023-02-28T16:19:12;16.95;;;9.15;;
75437;SDS011;64015;49.392;15.582;2023-02-28T16:21:38;15.75;;;9.07;;
75437;SDS011;64015;49.392;15.582;2023-02-28T16:24:04;19.40;;;9.55;;
75437;SDS011;64015;49.392;15.582;2023-02-28T16:26:30;16.60;;;7.85;;
75437;SDS011;64015;49.392;15.582;2023-02-28T16:28:59;17.98;;;9.23;;
75437;SDS011;64015;49.392;15.582;2023-02-28T16:31:27;16.23;;;9.15;;
75437;SDS011;64015;49.392;15.582;2023-02-28T16:33:53;21.20;;;10.32;;
75437;SDS011;64015;49.392;15.582;2023-02-28T16:36:21;21.10;;;9.93;;
75437;SDS011;64015;49.392;15.582;2023-02-28T16:38:53;19.33;;;9.95;;
75437;SDS011;64015;49.392;15.582;2023-02-28T16:41:21;22.73;;;10.65;;
75437;SDS011;64015;49.392;15.582;2023-02-28T16:43:50;20.17;;;11.45;;
75437;SDS011;64015;49.392;15.582;2023-02-28T16:46:19;16.77;;;9.98;;
75437;SDS011;64015;49.392;15.582;2023-02-28T16:48:46;15.95;;;8.68;;
75437;SDS011;64015;49.392;15.582;2023-02-28T16:51:16;19.55;;;9.88;;
75437;SDS011;64015;49.392;15.582;2023-02-28T16:53:43;20.50;;;10.35;;
75437;SDS011;64015;49.392;15.582;2023-02-28T16:56:22;18.05;;;9.70;;
75437;SDS011;64015;49.392;15.582;2023-02-28T16:58:50;20.80;;;9.65;;
75437;SDS011;64015;49.392;15.582;2023-02-28T17:01:16;18.98;;;10.10;;
75437;SDS011;64015;49.392;15.582;2023-02-28T17:03:47;20.98;;;10.05;;
75437;SDS011;64015;49.392;15.582;2023-02-28T17:06:17;20.63;;;10.13;;
75437;SDS011;64015;49.392;15.582;2023-02-28T17:08:47;23.05;;;10.82;;
75437;SDS011;64015;49.392;15.582;2023-02-28T17:13:39;22.42;;;9.05;;
75437;SDS011;64015;49.392;15.582;2023-02-28T17:16:07;20.77;;;9.75;;
75437;SDS011;64015;49.392;15.582;2023-02-28T17:18:47;23.55;;;10.13;;
75437;SDS011;64015;49.392;15.582;2023-02-28T17:21:16;21.48;;;10.75;;
75437;SDS011;64015;49.392;15.582;2023-02-28T17:23:42;26.20;;;11.43;;